sensor_id;sensor_type;location;lat;lon;timestamp;pressure;altitude;pressure_sealevel;temperature
16956;BMP180;8594;52.052;8.354;2023-04-03T00:00:09;102027.00;;;6.40
16956;BMP180;8594;52.052;8.354;2023-04-03T00:02:36;102026.00;;;6.40
16956;BMP180;8594;52.052;8.354;2023-04-03T00:05:04;102026.00;;;6.50
16956;BMP180;8594;52.052;8.354;2023-04-03T00:07:31;102031.00;;;5.90
16956;BMP180;8594;52.052;8.354;2023-04-03T00:09:57;102030.00;;;6.00
16956;BMP180;8594;52.052;8.354;2023-04-03T00:12:24;102037.00;;;5.90
16956;BMP180;8594;52.052;8.354;2023-04-03T00:14:51;102025.00;;;6.20
16956;BMP180;8594;52.052;8.354;2023-04-03T00:17:19;102030.00;;;5.70
16956;BMP180;8594;52.052;8.354;2023-04-03T00:19:46;102033.00;;;6.00
16956;BMP180;8594;52.052;8.354;2023-04-03T00:22:13;102038.00;;;5.90
16956;BMP180;8594;52.052;8.354;2023-04-03T00:24:40;102032.00;;;5.70
16956;BMP180;8594;52.052;8.354;2023-04-03T00:27:07;102029.00;;;5.60
16956;BMP180;8594;52.052;8.354;2023-04-03T00:29:34;102020.00;;;5.70
16956;BMP180;8594;52.052;8.354;2023-04-03T00:32:01;102034.00;;;5.50
16956;BMP180;8594;52.052;8.354;2023-04-03T00:34:29;102034.00;;;5.10
16956;BMP180;8594;52.052;8.354;2023-04-03T00:36:57;102042.00;;;5.20
16956;BMP180;8594;52.052;8.354;2023-04-03T00:39:24;102032.00;;;5.20
16956;BMP180;8594;52.052;8.354;2023-04-03T00:41:51;102035.00;;;5.30
16956;BMP180;8594;52.052;8.354;2023-04-03T00:44:23;102035.00;;;5.30
16956;BMP180;8594;52.052;8.354;2023-04-03T00:47:12;102042.00;;;5.20
16956;BMP180;8594;52.052;8.354;2023-04-03T00:49:42;102040.00;;;5.30
16956;BMP180;8594;52.052;8.354;2023-04-03T00:52:15;102047.00;;;5.10
16956;BMP180;8594;52.052;8.354;2023-04-03T00:54:45;102041.00;;;4.70
16956;BMP180;8594;52.052;8.354;2023-04-03T00:57:15;102043.00;;;4.80
16956;BMP180;8594;52.052;8.354;2023-04-03T00:59:47;102041.00;;;4.60
16956;BMP180;8594;52.052;8.354;2023-04-03T01:02:15;102039.00;;;4.60
16956;BMP180;8594;52.052;8.354;2023-04-03T01:04:44;102053.00;;;4.50
16956;BMP180;8594;52.052;8.354;2023-04-03T01:07:17;102046.00;;;4.50
16956;BMP180;8594;52.052;8.354;2023-04-03T01:09:47;102046.00;;;4.40
16956;BMP180;8594;52.052;8.354;2023-04-03T01:12:17;102040.00;;;4.30
16956;BMP180;8594;52.052;8.354;2023-04-03T01:14:44;102037.00;;;4.40
16956;BMP180;8594;52.052;8.354;2023-04-03T01:17:29;102043.00;;;4.40
16956;BMP180;8594;52.052;8.354;2023-04-03T01:20:45;102047.00;;;4.30
16956;BMP180;8594;52.052;8.354;2023-04-03T01:23:28;102045.00;;;4.30
16956;BMP180;8594;52.052;8.354;2023-04-03T01:25:57;102046.00;;;4.20
16956;BMP180;8594;52.052;8.354;2023-04-03T01:28:28;102035.00;;;4.20
16956;BMP180;8594;52.052;8.354;2023-04-03T01:31:03;102042.00;;;4.20
16956;BMP180;8594;52.052;8.354;2023-04-03T01:33:34;102050.00;;;4.30
16956;BMP180;8594;52.052;8.354;2023-04-03T01:36:01;102047.00;;;4.00
16956;BMP180;8594;52.052;8.354;2023-04-03T01:38:28;102052.00;;;4.00
16956;BMP180;8594;52.052;8.354;2023-04-03T01:40:55;102050.00;;;3.90
16956;BMP180;8594;52.052;8.354;2023-04-03T01:43:22;102051.00;;;4.10
16956;BMP180;8594;52.052;8.354;2023-04-03T01:45:49;102054.00;;;4.00
16956;BMP180;8594;52.052;8.354;2023-04-03T01:48:18;102051.00;;;4.10
16956;BMP180;8594;52.052;8.354;2023-04-03T01:50:46;102056.00;;;4.20
16956;BMP180;8594;52.052;8.354;2023-04-03T01:53:13;102052.00;;;4.40
16956;BMP180;8594;52.052;8.354;2023-04-03T01:55:40;102047.00;;;4.40
16956;BMP180;8594;52.052;8.354;2023-04-03T01:58:07;102054.00;;;4.20
16956;BMP180;8594;52.052;8.354;2023-04-03T02:00:34;102058.00;;;4.30
16956;BMP180;8594;52.052;8.354;2023-04-03T02:03:01;102062.00;;;4.50
16956;BMP180;8594;52.052;8.354;2023-04-03T02:05:29;102056.00;;;4.10
16956;BMP180;8594;52.052;8.354;2023-04-03T02:07:58;102050.00;;;3.90
16956;BMP180;8594;52.052;8.354;2023-04-03T02:10:25;102060.00;;;4.00
16956;BMP180;8594;52.052;8.354;2023-04-03T02:12:52;102053.00;;;3.90
16956;BMP180;8594;52.052;8.354;2023-04-03T02:15:19;102054.00;;;3.90
16956;BMP180;8594;52.052;8.354;2023-04-03T02:17:46;102055.00;;;3.80
16956;BMP180;8594;52.052;8.354;2023-04-03T02:20:13;102063.00;;;3.50
16956;BMP180;8594;52.052;8.354;2023-04-03T02:22:40;102056.00;;;3.80
16956;BMP180;8594;52.052;8.354;2023-04-03T02:25:09;102061.00;;;3.70
16956;BMP180;8594;52.052;8.354;2023-04-03T02:27:36;102061.00;;;3.70
16956;BMP180;8594;52.052;8.354;2023-04-03T02:30:04;102059.00;;;3.60
16956;BMP180;8594;52.052;8.354;2023-04-03T02:32:32;102065.00;;;3.60
16956;BMP180;8594;52.052;8.354;2023-04-03T02:34:59;102051.00;;;3.50
16956;BMP180;8594;52.052;8.354;2023-04-03T02:37:26;102061.00;;;3.50
16956;BMP180;8594;52.052;8.354;2023-04-03T02:39:52;102060.00;;;3.40
16956;BMP180;8594;52.052;8.354;2023-04-03T02:42:20;102070.00;;;3.50
16956;BMP180;8594;52.052;8.354;2023-04-03T02:44:48;102066.00;;;3.50
16956;BMP180;8594;52.052;8.354;2023-04-03T02:47:14;102065.00;;;3.40
16956;BMP180;8594;52.052;8.354;2023-04-03T02:49:41;102065.00;;;3.60
16956;BMP180;8594;52.052;8.354;2023-04-03T02:52:10;102072.00;;;3.30
16956;BMP180;8594;52.052;8.354;2023-04-03T02:54:37;102063.00;;;3.40
16956;BMP180;8594;52.052;8.354;2023-04-03T02:57:04;102070.00;;;3.30
16956;BMP180;8594;52.052;8.354;2023-04-03T02:59:32;102062.00;;;3.40
16956;BMP180;8594;52.052;8.354;2023-04-03T03:01:59;102064.00;;;3.60
16956;BMP180;8594;52.052;8.354;2023-04-03T03:04:26;102070.00;;;3.60
16956;BMP180;8594;52.052;8.354;2023-04-03T03:06:53;102061.00;;;3.50
16956;BMP180;8594;52.052;8.354;2023-04-03T03:09:20;102070.00;;;3.70
16956;BMP180;8594;52.052;8.354;2023-04-03T03:11:47;102083.00;;;3.60
16956;BMP180;8594;52.052;8.354;2023-04-03T03:14:14;102066.00;;;3.50
16956;BMP180;8594;52.052;8.354;2023-04-03T03:16:43;102074.00;;;3.40
16956;BMP180;8594;52.052;8.354;2023-04-03T03:19:10;102077.00;;;3.40
16956;BMP180;8594;52.052;8.354;2023-04-03T03:21:37;102075.00;;;3.40
16956;BMP180;8594;52.052;8.354;2023-04-03T03:24:05;102087.00;;;3.40
16956;BMP180;8594;52.052;8.354;2023-04-03T03:26:32;102076.00;;;3.10
16956;BMP180;8594;52.052;8.354;2023-04-03T03:28:58;102089.00;;;3.10
16956;BMP180;8594;52.052;8.354;2023-04-03T03:31:25;102091.00;;;3.30
16956;BMP180;8594;52.052;8.354;2023-04-03T03:33:54;102088.00;;;3.30
16956;BMP180;8594;52.052;8.354;2023-04-03T03:36:21;102086.00;;;3.40
16956;BMP180;8594;52.052;8.354;2023-04-03T03:38:48;102093.00;;;3.10
16956;BMP180;8594;52.052;8.354;2023-04-03T03:41:14;102097.00;;;3.10
16956;BMP180;8594;52.052;8.354;2023-04-03T03:43:41;102093.00;;;2.90
16956;BMP180;8594;52.052;8.354;2023-04-03T03:46:08;102094.00;;;3.30
16956;BMP180;8594;52.052;8.354;2023-04-03T03:48:35;102100.00;;;3.10
16956;BMP180;8594;52.052;8.354;2023-04-03T03:51:03;102097.00;;;3.30
16956;BMP180;8594;52.052;8.354;2023-04-03T03:53:30;102101.00;;;3.40
16956;BMP180;8594;52.052;8.354;2023-04-03T03:55:57;102103.00;;;3.40
16956;BMP180;8594;52.052;8.354;2023-04-03T03:58:24;102104.00;;;3.40
16956;BMP180;8594;52.052;8.354;2023-04-03T04:00:51;102106.00;;;3.50
16956;BMP180;8594;52.052;8.354;2023-04-03T04:03:18;102107.00;;;3.60
16956;BMP180;8594;52.052;8.354;2023-04-03T04:05:46;102115.00;;;3.60
16956;BMP180;8594;52.052;8.354;2023-04-03T04:08:14;102113.00;;;3.50
16956;BMP180;8594;52.052;8.354;2023-04-03T04:10:41;102115.00;;;3.80
16956;BMP180;8594;52.052;8.354;2023-04-03T04:13:08;102113.00;;;3.80
16956;BMP180;8594;52.052;8.354;2023-04-03T04:15:35;102112.00;;;3.70
16956;BMP180;8594;52.052;8.354;2023-04-03T04:18:02;102116.00;;;3.60
16956;BMP180;8594;52.052;8.354;2023-04-03T04:20:29;102109.00;;;3.60
16956;BMP180;8594;52.052;8.354;2023-04-03T04:22:55;102117.00;;;3.30
16956;BMP180;8594;52.052;8.354;2023-04-03T04:25:24;102126.00;;;3.30
16956;BMP180;8594;52.052;8.354;2023-04-03T04:27:51;102127.00;;;3.10
16956;BMP180;8594;52.052;8.354;2023-04-03T04:30:18;102116.00;;;2.90
16956;BMP180;8594;52.052;8.354;2023-04-03T04:32:45;102119.00;;;3.20
16956;BMP180;8594;52.052;8.354;2023-04-03T04:35:12;102116.00;;;3.40
16956;BMP180;8594;52.052;8.354;2023-04-03T04:37:39;102113.00;;;3.30
16956;BMP180;8594;52.052;8.354;2023-04-03T04:40:07;102117.00;;;3.00
16956;BMP180;8594;52.052;8.354;2023-04-03T04:42:36;102126.00;;;2.80
16956;BMP180;8594;52.052;8.354;2023-04-03T04:45:03;102121.00;;;2.90
16956;BMP180;8594;52.052;8.354;2023-04-03T04:47:30;102118.00;;;2.90
16956;BMP180;8594;52.052;8.354;2023-04-03T04:49:57;102125.00;;;2.90
16956;BMP180;8594;52.052;8.354;2023-04-03T04:52:24;102127.00;;;3.20
16956;BMP180;8594;52.052;8.354;2023-04-03T04:54:51;102121.00;;;2.80
16956;BMP180;8594;52.052;8.354;2023-04-03T04:57:18;102132.00;;;3.10
16956;BMP180;8594;52.052;8.354;2023-04-03T04:59:46;102138.00;;;3.20
16956;BMP180;8594;52.052;8.354;2023-04-03T05:02:12;102129.00;;;3.00
16956;BMP180;8594;52.052;8.354;2023-04-03T05:04:40;102126.00;;;2.90
16956;BMP180;8594;52.052;8.354;2023-04-03T05:07:06;102137.00;;;2.80
16956;BMP180;8594;52.052;8.354;2023-04-03T05:09:34;102135.00;;;2.90
16956;BMP180;8594;52.052;8.354;2023-04-03T05:12:01;102135.00;;;2.90
16956;BMP180;8594;52.052;8.354;2023-04-03T05:14:28;102140.00;;;2.50
16956;BMP180;8594;52.052;8.354;2023-04-03T05:16:56;102134.00;;;2.50
16956;BMP180;8594;52.052;8.354;2023-04-03T05:19:24;102141.00;;;2.80
16956;BMP180;8594;52.052;8.354;2023-04-03T05:21:51;102144.00;;;3.00
16956;BMP180;8594;52.052;8.354;2023-04-03T05:24:17;102140.00;;;2.60
16956;BMP180;8594;52.052;8.354;2023-04-03T05:26:44;102142.00;;;2.50
16956;BMP180;8594;52.052;8.354;2023-04-03T05:29:11;102145.00;;;2.60
16956;BMP180;8594;52.052;8.354;2023-04-03T05:31:38;102141.00;;;2.50
16956;BMP180;8594;52.052;8.354;2023-04-03T05:34:06;102153.00;;;2.40
16956;BMP180;8594;52.052;8.354;2023-04-03T05:36:33;102156.00;;;2.20
16956;BMP180;8594;52.052;8.354;2023-04-03T05:39:00;102150.00;;;2.50
16956;BMP180;8594;52.052;8.354;2023-04-03T05:41:27;102154.00;;;2.60
16956;BMP180;8594;52.052;8.354;2023-04-03T05:43:54;102166.00;;;2.70
16956;BMP180;8594;52.052;8.354;2023-04-03T05:46:21;102160.00;;;2.70
16956;BMP180;8594;52.052;8.354;2023-04-03T05:48:48;102161.00;;;2.40
16956;BMP180;8594;52.052;8.354;2023-04-03T05:51:19;102169.00;;;2.50
16956;BMP180;8594;52.052;8.354;2023-04-03T05:53:48;102174.00;;;2.60
16956;BMP180;8594;52.052;8.354;2023-04-03T05:56:16;102182.00;;;2.70
16956;BMP180;8594;52.052;8.354;2023-04-03T05:58:43;102184.00;;;2.80
16956;BMP180;8594;52.052;8.354;2023-04-03T06:01:10;102191.00;;;2.90
16956;BMP180;8594;52.052;8.354;2023-04-03T06:03:37;102191.00;;;3.20
16956;BMP180;8594;52.052;8.354;2023-04-03T06:06:06;102194.00;;;3.00
16956;BMP180;8594;52.052;8.354;2023-04-03T06:08:34;102191.00;;;3.20
16956;BMP180;8594;52.052;8.354;2023-04-03T06:11:01;102195.00;;;3.40
16956;BMP180;8594;52.052;8.354;2023-04-03T06:13:28;102192.00;;;3.10
16956;BMP180;8594;52.052;8.354;2023-04-03T06:15:56;102196.00;;;3.20
16956;BMP180;8594;52.052;8.354;2023-04-03T06:18:24;102200.00;;;3.10
16956;BMP180;8594;52.052;8.354;2023-04-03T06:20:50;102205.00;;;3.20
16956;BMP180;8594;52.052;8.354;2023-04-03T06:23:17;102199.00;;;3.20
16956;BMP180;8594;52.052;8.354;2023-04-03T06:25:45;102206.00;;;3.00
16956;BMP180;8594;52.052;8.354;2023-04-03T06:28:12;102191.00;;;3.50
16956;BMP180;8594;52.052;8.354;2023-04-03T06:30:39;102191.00;;;4.30
16956;BMP180;8594;52.052;8.354;2023-04-03T06:33:06;102191.00;;;4.90
16956;BMP180;8594;52.052;8.354;2023-04-03T06:35:34;102196.00;;;5.00
16956;BMP180;8594;52.052;8.354;2023-04-03T06:38:02;102201.00;;;5.50
16956;BMP180;8594;52.052;8.354;2023-04-03T06:40:30;102204.00;;;6.00
16956;BMP180;8594;52.052;8.354;2023-04-03T06:42:58;102196.00;;;6.80
16956;BMP180;8594;52.052;8.354;2023-04-03T06:45:25;102203.00;;;6.40
16956;BMP180;8594;52.052;8.354;2023-04-03T06:47:53;102207.00;;;7.10
16956;BMP180;8594;52.052;8.354;2023-04-03T06:50:21;102205.00;;;7.40
16956;BMP180;8594;52.052;8.354;2023-04-03T06:52:47;102211.00;;;7.80
16956;BMP180;8594;52.052;8.354;2023-04-03T06:55:14;102221.00;;;7.70
16956;BMP180;8594;52.052;8.354;2023-04-03T06:57:41;102217.00;;;7.80
16956;BMP180;8594;52.052;8.354;2023-04-03T07:00:12;102218.00;;;7.50
16956;BMP180;8594;52.052;8.354;2023-04-03T07:02:39;102211.00;;;7.60
16956;BMP180;8594;52.052;8.354;2023-04-03T07:05:07;102231.00;;;7.90
16956;BMP180;8594;52.052;8.354;2023-04-03T07:07:34;102234.00;;;8.20
16956;BMP180;8594;52.052;8.354;2023-04-03T07:10:01;102235.00;;;8.00
16956;BMP180;8594;52.052;8.354;2023-04-03T07:12:28;102228.00;;;8.30
16956;BMP180;8594;52.052;8.354;2023-04-03T07:14:55;102237.00;;;8.80
16956;BMP180;8594;52.052;8.354;2023-04-03T07:17:23;102238.00;;;9.20
16956;BMP180;8594;52.052;8.354;2023-04-03T07:19:50;102231.00;;;9.20
16956;BMP180;8594;52.052;8.354;2023-04-03T07:22:17;102236.00;;;9.40
16956;BMP180;8594;52.052;8.354;2023-04-03T07:24:44;102243.00;;;8.70
16956;BMP180;8594;52.052;8.354;2023-04-03T07:27:11;102253.00;;;9.20
16956;BMP180;8594;52.052;8.354;2023-04-03T07:29:39;102251.00;;;9.50
16956;BMP180;8594;52.052;8.354;2023-04-03T07:32:06;102251.00;;;8.00
16956;BMP180;8594;52.052;8.354;2023-04-03T07:34:34;102259.00;;;9.20
16956;BMP180;8594;52.052;8.354;2023-04-03T07:37:02;102271.00;;;8.40
16956;BMP180;8594;52.052;8.354;2023-04-03T07:39:30;102259.00;;;8.40
16956;BMP180;8594;52.052;8.354;2023-04-03T07:41:57;102259.00;;;8.80
16956;BMP180;8594;52.052;8.354;2023-04-03T07:44:24;102257.00;;;9.20
16956;BMP180;8594;52.052;8.354;2023-04-03T07:46:51;102259.00;;;9.20
16956;BMP180;8594;52.052;8.354;2023-04-03T07:49:18;102265.00;;;9.50
16956;BMP180;8594;52.052;8.354;2023-04-03T07:51:46;102261.00;;;10.10
16956;BMP180;8594;52.052;8.354;2023-04-03T07:54:14;102266.00;;;10.30
16956;BMP180;8594;52.052;8.354;2023-04-03T07:56:41;102266.00;;;10.00
16956;BMP180;8594;52.052;8.354;2023-04-03T07:59:09;102267.00;;;10.70
16956;BMP180;8594;52.052;8.354;2023-04-03T08:01:37;102268.00;;;10.10
16956;BMP180;8594;52.052;8.354;2023-04-03T08:04:04;102265.00;;;10.00
16956;BMP180;8594;52.052;8.354;2023-04-03T08:06:32;102265.00;;;10.70
16956;BMP180;8594;52.052;8.354;2023-04-03T08:09:02;102277.00;;;10.30
16956;BMP180;8594;52.052;8.354;2023-04-03T08:11:30;102278.00;;;11.00
16956;BMP180;8594;52.052;8.354;2023-04-03T08:13:57;102277.00;;;11.00
16956;BMP180;8594;52.052;8.354;2023-04-03T08:16:25;102286.00;;;11.10
16956;BMP180;8594;52.052;8.354;2023-04-03T08:18:54;102279.00;;;10.80
16956;BMP180;8594;52.052;8.354;2023-04-03T08:21:21;102271.00;;;10.80
16956;BMP180;8594;52.052;8.354;2023-04-03T08:23:49;102273.00;;;10.80
16956;BMP180;8594;52.052;8.354;2023-04-03T08:26:20;102279.00;;;10.60
16956;BMP180;8594;52.052;8.354;2023-04-03T08:28:48;102280.00;;;10.80
16956;BMP180;8594;52.052;8.354;2023-04-03T08:31:18;102277.00;;;11.10
16956;BMP180;8594;52.052;8.354;2023-04-03T08:33:47;102273.00;;;10.90
16956;BMP180;8594;52.052;8.354;2023-04-03T08:36:21;102277.00;;;10.30
16956;BMP180;8594;52.052;8.354;2023-04-03T08:38:50;102280.00;;;10.80
16956;BMP180;8594;52.052;8.354;2023-04-03T08:41:29;102287.00;;;10.50
16956;BMP180;8594;52.052;8.354;2023-04-03T08:44:07;102282.00;;;10.90
16956;BMP180;8594;52.052;8.354;2023-04-03T08:46:56;102286.00;;;10.80
16956;BMP180;8594;52.052;8.354;2023-04-03T08:49:33;102272.00;;;10.30
16956;BMP180;8594;52.052;8.354;2023-04-03T08:52:05;102279.00;;;10.70
16956;BMP180;8594;52.052;8.354;2023-04-03T08:54:48;102282.00;;;10.20
16956;BMP180;8594;52.052;8.354;2023-04-03T08:57:30;102280.00;;;10.50
16956;BMP180;8594;52.052;8.354;2023-04-03T09:00:01;102286.00;;;10.50
16956;BMP180;8594;52.052;8.354;2023-04-03T09:02:34;102282.00;;;10.30
16956;BMP180;8594;52.052;8.354;2023-04-03T09:05:11;102283.00;;;10.00
16956;BMP180;8594;52.052;8.354;2023-04-03T09:07:43;102279.00;;;10.30
16956;BMP180;8594;52.052;8.354;2023-04-03T09:10:14;102277.00;;;10.50
16956;BMP180;8594;52.052;8.354;2023-04-03T09:12:46;102283.00;;;10.20
16956;BMP180;8594;52.052;8.354;2023-04-03T09:15:20;102286.00;;;10.10
16956;BMP180;8594;52.052;8.354;2023-04-03T09:18:00;102288.00;;;9.80
16956;BMP180;8594;52.052;8.354;2023-04-03T09:20:41;102287.00;;;9.50
16956;BMP180;8594;52.052;8.354;2023-04-03T09:23:19;102290.00;;;9.90
16956;BMP180;8594;52.052;8.354;2023-04-03T09:25:51;102290.00;;;10.40
16956;BMP180;8594;52.052;8.354;2023-04-03T09:28:21;102279.00;;;10.00
16956;BMP180;8594;52.052;8.354;2023-04-03T09:30:48;102284.00;;;9.90
16956;BMP180;8594;52.052;8.354;2023-04-03T09:33:16;102281.00;;;10.80
16956;BMP180;8594;52.052;8.354;2023-04-03T09:35:44;102285.00;;;11.10
16956;BMP180;8594;52.052;8.354;2023-04-03T09:38:18;102284.00;;;11.30
16956;BMP180;8594;52.052;8.354;2023-04-03T09:40:49;102281.00;;;11.80
16956;BMP180;8594;52.052;8.354;2023-04-03T09:43:28;102283.00;;;11.40
16956;BMP180;8594;52.052;8.354;2023-04-03T09:46:16;102283.00;;;11.20
16956;BMP180;8594;52.052;8.354;2023-04-03T09:48:51;102288.00;;;11.50
16956;BMP180;8594;52.052;8.354;2023-04-03T09:51:18;102287.00;;;11.50
16956;BMP180;8594;52.052;8.354;2023-04-03T09:53:45;102274.00;;;10.50
16956;BMP180;8594;52.052;8.354;2023-04-03T09:56:22;102279.00;;;10.60
16956;BMP180;8594;52.052;8.354;2023-04-03T09:59:11;102284.00;;;10.40
16956;BMP180;8594;52.052;8.354;2023-04-03T10:01:43;102274.00;;;11.10
16956;BMP180;8594;52.052;8.354;2023-04-03T10:04:14;102268.00;;;11.00
16956;BMP180;8594;52.052;8.354;2023-04-03T10:06:45;102274.00;;;10.70
16956;BMP180;8594;52.052;8.354;2023-04-03T10:09:20;102277.00;;;9.90
16956;BMP180;8594;52.052;8.354;2023-04-03T10:12:03;102275.00;;;11.10
16956;BMP180;8594;52.052;8.354;2023-04-03T10:14:35;102270.00;;;10.50
16956;BMP180;8594;52.052;8.354;2023-04-03T10:17:18;102275.00;;;11.20
16956;BMP180;8594;52.052;8.354;2023-04-03T10:19:51;102262.00;;;10.80
16956;BMP180;8594;52.052;8.354;2023-04-03T10:22:28;102255.00;;;12.20
16956;BMP180;8594;52.052;8.354;2023-04-03T10:25:10;102268.00;;;11.60
16956;BMP180;8594;52.052;8.354;2023-04-03T10:27:52;102255.00;;;10.90
16956;BMP180;8594;52.052;8.354;2023-04-03T10:30:39;102256.00;;;10.50
16956;BMP180;8594;52.052;8.354;2023-04-03T10:33:27;102261.00;;;9.90
16956;BMP180;8594;52.052;8.354;2023-04-03T10:36:10;102265.00;;;9.80
16956;BMP180;8594;52.052;8.354;2023-04-03T10:38:51;102262.00;;;9.70
16956;BMP180;8594;52.052;8.354;2023-04-03T10:41:34;102258.00;;;9.40
16956;BMP180;8594;52.052;8.354;2023-04-03T10:44:15;102262.00;;;9.10
16956;BMP180;8594;52.052;8.354;2023-04-03T10:46:49;102271.00;;;8.70
16956;BMP180;8594;52.052;8.354;2023-04-03T10:49:35;102256.00;;;9.00
16956;BMP180;8594;52.052;8.354;2023-04-03T10:52:14;102256.00;;;8.70
16956;BMP180;8594;52.052;8.354;2023-04-03T10:54:52;102249.00;;;9.50
16956;BMP180;8594;52.052;8.354;2023-04-03T10:57:24;102258.00;;;9.30
16956;BMP180;8594;52.052;8.354;2023-04-03T10:59:56;102259.00;;;9.50
16956;BMP180;8594;52.052;8.354;2023-04-03T11:02:28;102260.00;;;9.20
16956;BMP180;8594;52.052;8.354;2023-04-03T11:05:01;102260.00;;;9.40
16956;BMP180;8594;52.052;8.354;2023-04-03T11:07:35;102242.00;;;9.30
16956;BMP180;8594;52.052;8.354;2023-04-03T11:10:14;102237.00;;;10.00
16956;BMP180;8594;52.052;8.354;2023-04-03T11:12:47;102239.00;;;9.70
16956;BMP180;8594;52.052;8.354;2023-04-03T11:15:19;102255.00;;;9.40
16956;BMP180;8594;52.052;8.354;2023-04-03T11:17:54;102243.00;;;9.20
16956;BMP180;8594;52.052;8.354;2023-04-03T11:20:26;102233.00;;;9.30
16956;BMP180;8594;52.052;8.354;2023-04-03T11:23:03;102251.00;;;8.90
16956;BMP180;8594;52.052;8.354;2023-04-03T11:25:35;102249.00;;;8.90
16956;BMP180;8594;52.052;8.354;2023-04-03T11:28:05;102254.00;;;9.00
16956;BMP180;8594;52.052;8.354;2023-04-03T11:30:46;102238.00;;;9.70
16956;BMP180;8594;52.052;8.354;2023-04-03T11:33:42;102240.00;;;10.20
16956;BMP180;8594;52.052;8.354;2023-04-03T11:36:19;102243.00;;;10.50
16956;BMP180;8594;52.052;8.354;2023-04-03T11:38:49;102231.00;;;9.90
16956;BMP180;8594;52.052;8.354;2023-04-03T11:41:27;102228.00;;;10.30
16956;BMP180;8594;52.052;8.354;2023-04-03T11:43:59;102229.00;;;9.80
16956;BMP180;8594;52.052;8.354;2023-04-03T11:46:51;102223.00;;;10.00
16956;BMP180;8594;52.052;8.354;2023-04-03T11:50:00;102217.00;;;9.90
16956;BMP180;8594;52.052;8.354;2023-04-03T11:53:00;102209.00;;;9.50
16956;BMP180;8594;52.052;8.354;2023-04-03T11:55:56;102215.00;;;9.20
16956;BMP180;8594;52.052;8.354;2023-04-03T11:58:25;102216.00;;;9.30
16956;BMP180;8594;52.052;8.354;2023-04-03T12:01:03;102215.00;;;9.00
16956;BMP180;8594;52.052;8.354;2023-04-03T12:04:07;102218.00;;;9.60
16956;BMP180;8594;52.052;8.354;2023-04-03T12:07:13;102213.00;;;10.10
16956;BMP180;8594;52.052;8.354;2023-04-03T12:10:16;102193.00;;;9.90
16956;BMP180;8594;52.052;8.354;2023-04-03T12:12:56;102209.00;;;9.50
16956;BMP180;8594;52.052;8.354;2023-04-03T12:15:55;102210.00;;;10.10
16956;BMP180;8594;52.052;8.354;2023-04-03T12:18:57;102208.00;;;9.80
16956;BMP180;8594;52.052;8.354;2023-04-03T12:22:13;102196.00;;;10.30
16956;BMP180;8594;52.052;8.354;2023-04-03T12:24:42;102205.00;;;9.70
16956;BMP180;8594;52.052;8.354;2023-04-03T12:27:28;102193.00;;;9.20
16956;BMP180;8594;52.052;8.354;2023-04-03T12:30:25;102195.00;;;9.90
16956;BMP180;8594;52.052;8.354;2023-04-03T12:33:13;102188.00;;;9.90
16956;BMP180;8594;52.052;8.354;2023-04-03T12:35:57;102180.00;;;10.70
16956;BMP180;8594;52.052;8.354;2023-04-03T12:39:01;102164.00;;;10.80
16956;BMP180;8594;52.052;8.354;2023-04-03T12:41:37;102167.00;;;11.40
16956;BMP180;8594;52.052;8.354;2023-04-03T12:44:25;102170.00;;;10.90
16956;BMP180;8594;52.052;8.354;2023-04-03T12:46:53;102167.00;;;10.50
16956;BMP180;8594;52.052;8.354;2023-04-03T12:49:35;102152.00;;;10.90
16956;BMP180;8594;52.052;8.354;2023-04-03T12:52:20;102157.00;;;10.90
16956;BMP180;8594;52.052;8.354;2023-04-03T12:54:50;102155.00;;;10.70
16956;BMP180;8594;52.052;8.354;2023-04-03T12:57:21;102162.00;;;11.40
16956;BMP180;8594;52.052;8.354;2023-04-03T12:59:50;102145.00;;;11.20
16956;BMP180;8594;52.052;8.354;2023-04-03T13:02:25;102154.00;;;11.10
16956;BMP180;8594;52.052;8.354;2023-04-03T13:04:55;102135.00;;;10.90
16956;BMP180;8594;52.052;8.354;2023-04-03T13:07:28;102135.00;;;10.50
16956;BMP180;8594;52.052;8.354;2023-04-03T13:10:15;102135.00;;;10.50
16956;BMP180;8594;52.052;8.354;2023-04-03T13:12:48;102131.00;;;10.60
16956;BMP180;8594;52.052;8.354;2023-04-03T13:15:19;102134.00;;;11.00
16956;BMP180;8594;52.052;8.354;2023-04-03T13:17:46;102135.00;;;10.20
16956;BMP180;8594;52.052;8.354;2023-04-03T13:20:21;102118.00;;;10.10
16956;BMP180;8594;52.052;8.354;2023-04-03T13:22:55;102129.00;;;11.00
16956;BMP180;8594;52.052;8.354;2023-04-03T13:25:29;102135.00;;;10.70
16956;BMP180;8594;52.052;8.354;2023-04-03T13:27:59;102133.00;;;11.00
16956;BMP180;8594;52.052;8.354;2023-04-03T13:30:31;102136.00;;;10.70
16956;BMP180;8594;52.052;8.354;2023-04-03T13:33:02;102141.00;;;10.10
16956;BMP180;8594;52.052;8.354;2023-04-03T13:35:37;102141.00;;;9.80
16956;BMP180;8594;52.052;8.354;2023-04-03T13:38:22;102132.00;;;10.10
16956;BMP180;8594;52.052;8.354;2023-04-03T13:40:53;102130.00;;;9.90
16956;BMP180;8594;52.052;8.354;2023-04-03T13:43:25;102131.00;;;11.10
16956;BMP180;8594;52.052;8.354;2023-04-03T13:46:23;102121.00;;;10.80
16956;BMP180;8594;52.052;8.354;2023-04-03T13:48:53;102131.00;;;10.60
16956;BMP180;8594;52.052;8.354;2023-04-03T13:51:24;102116.00;;;10.40
16956;BMP180;8594;52.052;8.354;2023-04-03T13:53:54;102118.00;;;10.40
16956;BMP180;8594;52.052;8.354;2023-04-03T13:56:30;102111.00;;;10.20
16956;BMP180;8594;52.052;8.354;2023-04-03T13:59:19;102115.00;;;10.90
16956;BMP180;8594;52.052;8.354;2023-04-03T14:01:52;102114.00;;;10.60
16956;BMP180;8594;52.052;8.354;2023-04-03T14:04:23;102106.00;;;11.00
16956;BMP180;8594;52.052;8.354;2023-04-03T14:06:51;102104.00;;;11.20
16956;BMP180;8594;52.052;8.354;2023-04-03T14:09:20;102099.00;;;11.10
16956;BMP180;8594;52.052;8.354;2023-04-03T14:11:52;102097.00;;;11.50
16956;BMP180;8594;52.052;8.354;2023-04-03T14:14:23;102101.00;;;11.40
16956;BMP180;8594;52.052;8.354;2023-04-03T14:16:54;102088.00;;;10.80
16956;BMP180;8594;52.052;8.354;2023-04-03T14:19:25;102088.00;;;10.80
16956;BMP180;8594;52.052;8.354;2023-04-03T14:21:54;102090.00;;;9.90
16956;BMP180;8594;52.052;8.354;2023-04-03T14:24:23;102083.00;;;10.00
16956;BMP180;8594;52.052;8.354;2023-04-03T14:26:53;102090.00;;;10.10
16956;BMP180;8594;52.052;8.354;2023-04-03T14:29:22;102076.00;;;10.40
16956;BMP180;8594;52.052;8.354;2023-04-03T14:31:50;102074.00;;;9.90
16956;BMP180;8594;52.052;8.354;2023-04-03T14:34:17;102069.00;;;10.10
16956;BMP180;8594;52.052;8.354;2023-04-03T14:36:45;102081.00;;;10.00
16956;BMP180;8594;52.052;8.354;2023-04-03T14:39:18;102068.00;;;10.50
16956;BMP180;8594;52.052;8.354;2023-04-03T14:41:46;102062.00;;;10.40